createdAt,value
2017-06-11T00:02:19.750Z,16.80
2017-06-11T00:04:46.213Z,16.80
2017-06-11T00:07:14.163Z,17.00
2017-06-11T00:09:40.678Z,17.00
2017-06-11T00:12:07.091Z,17.10
2017-06-11T00:14:33.477Z,17.00
2017-06-11T00:16:59.901Z,16.90
2017-06-11T00:19:26.502Z,17.10
2017-06-11T00:21:52.884Z,16.70
2017-06-11T00:24:19.313Z,16.60
2017-06-11T00:26:45.850Z,16.80
2017-06-11T00:29:12.626Z,16.90
2017-06-11T00:31:39.224Z,16.90
2017-06-11T00:34:06.324Z,16.90
2017-06-11T00:36:32.735Z,16.90
2017-06-11T00:38:59.288Z,17.00
2017-06-11T00:41:25.819Z,17.00
2017-06-11T00:43:52.240Z,17.10
2017-06-11T00:46:19.433Z,16.90
2017-06-11T00:48:46.616Z,17.00
2017-06-11T00:51:13.234Z,17.00
2017-06-11T00:53:39.866Z,17.00
2017-06-11T00:56:06.296Z,16.90
2017-06-11T00:58:32.933Z,16.90
2017-06-11T01:00:59.914Z,16.90
2017-06-11T01:03:26.546Z,17.00
2017-06-11T01:05:53.088Z,17.00
2017-06-11T01:08:20.404Z,17.00
2017-06-11T01:10:46.808Z,16.70
2017-06-11T01:13:13.378Z,16.80
2017-06-11T01:15:40.009Z,16.90
2017-06-11T01:18:06.410Z,16.70
2017-06-11T01:20:32.878Z,16.50
2017-06-11T01:22:59.375Z,16.50
2017-06-11T01:25:25.845Z,16.70
2017-06-11T01:27:52.240Z,16.70
2017-06-11T01:30:18.602Z,16.60
2017-06-11T01:32:45.059Z,16.60
2017-06-11T01:35:11.467Z,16.50
2017-06-11T01:37:37.906Z,16.60
2017-06-11T01:40:11.265Z,16.60
2017-06-11T01:42:37.932Z,16.30
2017-06-11T01:45:04.338Z,16.40
2017-06-11T01:47:30.807Z,16.40
2017-06-11T01:49:57.266Z,16.50
2017-06-11T01:52:23.665Z,16.40
2017-06-11T01:54:50.087Z,16.30
2017-06-11T01:57:16.496Z,16.30
2017-06-11T01:59:43.405Z,16.40
2017-06-11T02:02:10.181Z,16.30
2017-06-11T02:04:36.683Z,16.50
2017-06-11T02:07:03.810Z,16.60
2017-06-11T02:09:30.233Z,16.70
2017-06-11T02:11:56.628Z,16.90
2017-06-11T02:14:23.141Z,16.80
2017-06-11T02:16:50.378Z,16.90
2017-06-11T02:19:16.789Z,16.90
2017-06-11T02:21:43.205Z,16.90
2017-06-11T02:24:09.639Z,17.10
2017-06-11T02:26:36.073Z,17.10
2017-06-11T02:29:02.496Z,17.20
2017-06-11T02:31:28.979Z,17.10
2017-06-11T02:33:55.412Z,17.00
2017-06-11T02:36:21.814Z,17.10
2017-06-11T02:38:48.236Z,17.00
2017-06-11T02:41:14.632Z,17.00
2017-06-11T02:43:41.792Z,16.80
2017-06-11T02:46:08.298Z,16.80
2017-06-11T02:48:35.530Z,16.90
2017-06-11T02:51:01.987Z,16.90
2017-06-11T02:53:29.209Z,16.90
2017-06-11T02:55:55.837Z,16.90
2017-06-11T02:58:22.292Z,16.80
2017-06-11T03:00:49.639Z,16.70
2017-06-11T03:03:16.090Z,16.70
2017-06-11T03:05:43.430Z,16.50
2017-06-11T03:08:10.076Z,16.50
2017-06-11T03:10:36.609Z,16.40
2017-06-11T03:13:04.056Z,16.40
2017-06-11T03:15:30.592Z,16.40
2017-06-11T03:17:57.483Z,16.40
2017-06-11T03:20:23.937Z,16.30
2017-06-11T03:22:50.392Z,16.20
2017-06-11T03:25:16.899Z,16.30
2017-06-11T03:27:44.238Z,16.10
2017-06-11T03:30:10.731Z,16.20
2017-06-11T03:32:37.202Z,16.00
2017-06-11T03:35:03.654Z,16.00
2017-06-11T03:37:30.125Z,16.00
2017-06-11T03:39:56.615Z,16.00
2017-06-11T03:42:23.104Z,16.10
2017-06-11T03:44:50.368Z,16.20
2017-06-11T03:47:17.847Z,16.10
2017-06-11T03:49:44.315Z,16.10
2017-06-11T03:52:11.025Z,16.20
2017-06-11T03:54:37.484Z,16.20
2017-06-11T03:57:03.983Z,16.20
2017-06-11T03:59:30.501Z,16.20
2017-06-11T04:01:57.031Z,16.20
2017-06-11T04:04:24.253Z,16.50
2017-06-11T04:06:50.789Z,16.40
2017-06-11T04:09:17.348Z,16.50
2017-06-11T04:11:44.579Z,16.50
2017-06-11T04:14:11.129Z,16.50
2017-06-11T04:16:38.401Z,16.60
2017-06-11T04:19:05.615Z,16.70
2017-06-11T04:21:32.230Z,16.60
2017-06-11T04:23:58.749Z,16.80
2017-06-11T04:26:25.272Z,16.70
2017-06-11T04:28:51.788Z,16.80
2017-06-11T04:31:19.013Z,17.00
2017-06-11T04:33:46.480Z,16.90
2017-06-11T04:36:13.157Z,17.00
2017-06-11T04:38:39.623Z,17.20
2017-06-11T04:41:06.075Z,17.30
2017-06-11T04:43:32.604Z,17.30
2017-06-11T04:45:59.054Z,17.40
2017-06-11T04:48:25.697Z,17.30
2017-06-11T04:50:52.945Z,17.50
2017-06-11T04:53:19.391Z,17.40
2017-06-11T04:55:46.598Z,17.50
2017-06-11T04:58:13.380Z,17.50
2017-06-11T05:00:40.598Z,17.80
2017-06-11T05:03:07.291Z,17.80
2017-06-11T05:05:33.836Z,17.80
2017-06-11T05:08:00.339Z,17.80
2017-06-11T05:10:26.834Z,17.90
2017-06-11T05:12:53.340Z,18.00
2017-06-11T05:15:19.823Z,18.00
2017-06-11T05:17:46.287Z,18.00
2017-06-11T05:20:12.804Z,18.10
2017-06-11T05:22:40.102Z,18.30
2017-06-11T05:25:06.585Z,18.30
2017-06-11T05:27:33.959Z,18.40
2017-06-11T05:30:01.167Z,18.40
2017-06-11T05:32:27.663Z,18.50
2017-06-11T05:34:54.230Z,18.50
2017-06-11T05:37:20.721Z,18.40
2017-06-11T05:39:47.263Z,18.50
2017-06-11T05:42:13.770Z,18.50
2017-06-11T05:44:41.007Z,18.50
2017-06-11T05:47:07.522Z,18.50
2017-06-11T05:49:34.069Z,18.70
2017-06-11T05:52:00.550Z,18.70
2017-06-11T05:54:27.078Z,18.80
2017-06-11T05:56:53.812Z,19.00
2017-06-11T05:59:20.478Z,19.00
2017-06-11T06:01:47.008Z,19.00
2017-06-11T06:04:13.635Z,19.10
2017-06-11T06:06:40.147Z,19.20
2017-06-11T06:09:07.388Z,19.20
2017-06-11T06:11:34.582Z,19.30
2017-06-11T06:14:01.047Z,19.30
2017-06-11T06:16:27.465Z,19.60
2017-06-11T06:18:53.918Z,19.60
2017-06-11T06:21:21.288Z,19.70
2017-06-11T06:23:47.742Z,19.90
2017-06-11T06:26:14.263Z,20.00
2017-06-11T06:28:41.486Z,20.20
2017-06-11T06:31:07.975Z,20.20
2017-06-11T06:33:34.509Z,20.40
2017-06-11T06:36:01.010Z,20.40
2017-06-11T06:38:27.614Z,20.30
2017-06-11T06:40:54.114Z,20.30
2017-06-11T06:43:20.614Z,20.50
2017-06-11T06:45:47.146Z,20.50
2017-06-11T06:48:13.849Z,20.50
2017-06-11T06:50:40.307Z,20.70
2017-06-11T06:53:06.806Z,20.80
2017-06-11T06:55:33.337Z,20.80
2017-06-11T06:58:00.035Z,20.80
2017-06-11T07:00:26.559Z,20.90
2017-06-11T07:02:53.101Z,21.30
2017-06-11T07:05:19.569Z,21.50
2017-06-11T07:07:46.068Z,21.60
2017-06-11T07:10:12.616Z,21.70
2017-06-11T07:12:39.266Z,21.80
2017-06-11T07:15:05.796Z,21.90
2017-06-11T07:17:33.091Z,22.10
2017-06-11T07:20:01.036Z,22.10
2017-06-11T07:22:34.601Z,22.10
2017-06-11T07:25:01.204Z,22.10
2017-06-11T07:27:27.700Z,22.20
2017-06-11T07:29:54.305Z,22.30
2017-06-11T07:32:21.602Z,22.40
2017-06-11T07:34:48.083Z,22.40
2017-06-11T07:37:14.562Z,22.40
2017-06-11T07:39:41.178Z,22.40
2017-06-11T07:42:08.500Z,22.50
2017-06-11T07:44:35.211Z,22.50
2017-06-11T07:47:01.704Z,22.60
2017-06-11T07:49:28.386Z,22.70
2017-06-11T07:51:54.952Z,22.70
2017-06-11T07:54:21.515Z,22.80
2017-06-11T07:56:48.026Z,22.80
2017-06-11T07:59:14.657Z,22.80
2017-06-11T08:01:41.174Z,22.90
2017-06-11T08:04:07.675Z,23.00
2017-06-11T08:06:34.270Z,23.10
2017-06-11T08:09:01.413Z,23.10
2017-06-11T08:11:28.004Z,23.30
2017-06-11T08:13:54.496Z,23.30
2017-06-11T08:16:21.028Z,23.50
2017-06-11T08:18:47.575Z,23.70
2017-06-11T08:21:14.924Z,23.70
2017-06-11T08:23:42.216Z,23.80
2017-06-11T08:26:08.705Z,23.80
2017-06-11T08:28:35.271Z,23.90
2017-06-11T08:31:01.917Z,23.80
2017-06-11T08:33:28.419Z,24.40
2017-06-11T08:35:55.016Z,24.60
2017-06-11T08:38:21.557Z,24.50
2017-06-11T08:40:48.121Z,24.40
2017-06-11T08:43:14.648Z,24.90
2017-06-11T08:45:41.177Z,24.80
2017-06-11T08:48:14.828Z,24.90
2017-06-11T08:50:41.344Z,25.30
2017-06-11T08:53:08.588Z,25.60
2017-06-11T08:55:35.892Z,25.60
2017-06-11T08:58:02.405Z,25.60
2017-06-11T09:00:28.970Z,25.80
2017-06-11T09:02:55.467Z,26.30
2017-06-11T09:05:22.551Z,26.20
2017-06-11T09:07:49.429Z,26.20
2017-06-11T09:10:16.992Z,26.50
2017-06-11T09:12:45.396Z,26.90
2017-06-11T09:15:12.209Z,27.30
2017-06-11T09:17:40.999Z,28.00
2017-06-11T09:20:08.028Z,27.90
2017-06-11T09:22:34.633Z,28.30
2017-06-11T09:25:01.214Z,28.30
2017-06-11T09:27:28.657Z,28.70
2017-06-11T09:29:55.232Z,28.80
2017-06-11T09:32:22.027Z,28.40
2017-06-11T09:34:48.711Z,28.60
2017-06-11T09:37:15.355Z,27.90
2017-06-11T09:39:41.894Z,27.80
2017-06-11T09:42:08.662Z,28.20
2017-06-11T09:44:35.939Z,28.30
2017-06-11T09:47:05.279Z,28.90
2017-06-11T09:53:44.507Z,29.70
2017-06-11T09:56:14.808Z,30.50
2017-06-11T09:58:43.693Z,39.30
2017-06-11T10:01:17.562Z,39.20
2017-06-11T10:03:44.311Z,40.20
2017-06-11T10:06:10.796Z,43.60
2017-06-11T10:08:37.254Z,44.80
2017-06-11T10:11:04.093Z,44.20
2017-06-11T10:13:30.993Z,41.90
2017-06-11T10:15:57.481Z,41.10
2017-06-11T10:18:24.115Z,41.00
2017-06-11T10:20:50.598Z,39.50
2017-06-11T10:23:17.446Z,40.20
2017-06-11T10:25:43.923Z,39.70
2017-06-11T10:28:10.488Z,39.80
2017-06-11T10:30:37.078Z,40.00
2017-06-11T10:33:04.599Z,39.80
2017-06-11T10:35:31.205Z,39.00
2017-06-11T10:37:57.868Z,39.10
2017-06-11T10:40:24.451Z,37.70
2017-06-11T10:42:51.807Z,37.70
2017-06-11T10:45:18.489Z,37.60
2017-06-11T10:47:45.164Z,37.60
2017-06-11T10:50:13.099Z,37.80
2017-06-11T10:52:39.785Z,38.50
2017-06-11T10:55:07.233Z,38.40
2017-06-11T10:57:33.883Z,38.30
2017-06-11T11:00:00.521Z,38.70
2017-06-11T11:02:27.298Z,38.70
2017-06-11T11:04:54.172Z,38.30
2017-06-11T11:07:21.002Z,38.00
2017-06-11T11:09:47.755Z,37.30
2017-06-11T11:12:14.328Z,37.10
2017-06-11T11:14:40.946Z,36.70
2017-06-11T11:17:07.621Z,36.30
2017-06-11T11:19:34.331Z,35.80
2017-06-11T11:22:01.778Z,34.70
2017-06-11T11:24:28.596Z,34.70
2017-06-11T11:26:55.407Z,34.70
2017-06-11T11:29:21.944Z,34.80
2017-06-11T11:31:48.654Z,34.90
2017-06-11T11:34:15.406Z,34.90
2017-06-11T11:36:41.901Z,34.60
2017-06-11T11:39:08.633Z,33.20
2017-06-11T11:41:35.305Z,33.10
2017-06-11T11:44:02.026Z,34.10
2017-06-11T11:46:28.990Z,34.40
2017-06-11T11:48:55.789Z,34.20
2017-06-11T11:51:22.509Z,34.00
2017-06-11T11:53:49.143Z,34.30
2017-06-11T11:56:15.918Z,34.20
2017-06-11T11:58:42.489Z,34.50
2017-06-11T12:01:09.057Z,33.50
2017-06-11T12:03:35.814Z,33.60
2017-06-11T12:06:02.366Z,32.90
2017-06-11T12:08:30.267Z,33.50
2017-06-11T12:10:56.758Z,33.50
2017-06-11T12:13:23.200Z,32.80
2017-06-11T12:15:49.681Z,33.50
2017-06-11T12:18:16.169Z,33.30
2017-06-11T12:20:42.631Z,33.70
2017-06-11T12:23:09.118Z,33.40
2017-06-11T12:25:35.561Z,33.80
2017-06-11T12:28:02.020Z,33.90
2017-06-11T12:30:28.513Z,34.10
2017-06-11T12:32:55.067Z,33.10
2017-06-11T12:35:21.521Z,32.60
2017-06-11T12:37:47.989Z,32.10
2017-06-11T12:40:14.491Z,33.50
2017-06-11T12:42:40.957Z,34.40
2017-06-11T12:45:07.518Z,34.40
2017-06-11T12:47:33.997Z,33.50
2017-06-11T12:50:01.214Z,34.20
2017-06-11T12:52:27.665Z,34.20
2017-06-11T12:54:54.144Z,34.50
2017-06-11T12:57:20.633Z,35.30
2017-06-11T12:59:47.115Z,35.90
2017-06-11T13:02:13.710Z,35.60
2017-06-11T13:04:40.189Z,35.60
2017-06-11T13:07:06.718Z,35.20
2017-06-11T13:09:33.220Z,34.20
2017-06-11T13:11:59.776Z,33.70
2017-06-11T13:14:26.413Z,33.10
2017-06-11T13:16:52.841Z,31.90
2017-06-11T13:19:19.295Z,32.30
2017-06-11T13:21:45.809Z,32.00
2017-06-11T13:24:12.292Z,31.70
2017-06-11T13:26:38.842Z,30.60
2017-06-11T13:29:05.340Z,30.90
2017-06-11T13:31:32.147Z,30.90
2017-06-11T13:33:59.581Z,30.30
2017-06-11T13:36:26.022Z,30.20
2017-06-11T13:38:53.328Z,30.10
2017-06-11T13:41:19.951Z,30.10
2017-06-11T13:43:46.472Z,30.20
2017-06-11T13:46:13.675Z,30.00
2017-06-11T13:48:40.118Z,29.20
2017-06-11T13:51:06.580Z,28.90
2017-06-11T13:53:33.842Z,29.20
2017-06-11T13:56:00.414Z,29.20
2017-06-11T13:58:27.711Z,28.80
2017-06-11T14:00:54.155Z,28.70
2017-06-11T14:03:20.647Z,29.10
2017-06-11T14:05:47.264Z,29.10
2017-06-11T14:08:14.222Z,28.90
2017-06-11T14:10:40.762Z,29.00
2017-06-11T14:13:07.314Z,28.40
2017-06-11T14:15:33.873Z,28.10
2017-06-11T14:18:01.094Z,28.70
2017-06-11T14:20:27.660Z,28.70
2017-06-11T14:22:54.111Z,29.10
2017-06-11T14:25:20.790Z,29.00
2017-06-11T14:27:47.932Z,28.70
2017-06-11T14:30:19.322Z,28.90
2017-06-11T14:32:47.393Z,28.60
2017-06-11T14:35:14.616Z,28.10
2017-06-11T14:37:41.046Z,28.10
2017-06-11T14:40:07.554Z,27.70
2017-06-11T14:42:34.132Z,27.50
2017-06-11T14:45:00.612Z,27.50
2017-06-11T14:47:28.040Z,27.50
2017-06-11T14:49:55.281Z,27.60
2017-06-11T14:52:21.784Z,27.60
2017-06-11T14:54:48.294Z,27.60
2017-06-11T14:57:14.830Z,27.60
2017-06-11T14:59:41.401Z,27.50
2017-06-11T15:02:07.954Z,27.70
2017-06-11T15:04:34.490Z,27.90
2017-06-11T15:07:01.132Z,27.70
2017-06-11T15:09:28.369Z,27.60
2017-06-11T15:11:54.935Z,27.60
2017-06-11T15:14:21.408Z,27.60
2017-06-11T15:16:48.777Z,27.40
2017-06-11T15:19:15.327Z,27.30
2017-06-11T15:21:41.901Z,27.30
2017-06-11T15:24:08.387Z,27.20
2017-06-11T15:26:34.898Z,27.20
2017-06-11T15:29:01.385Z,27.30
2017-06-11T15:31:28.594Z,28.00
2017-06-11T15:33:55.184Z,28.00
2017-06-11T15:36:21.808Z,27.40
2017-06-11T15:38:49.009Z,27.40
2017-06-11T15:41:16.301Z,27.30
2017-06-11T15:43:42.771Z,27.20
2017-06-11T15:46:09.283Z,26.80
2017-06-11T15:48:36.582Z,26.80
2017-06-11T15:51:02.998Z,26.70
2017-06-11T15:53:29.543Z,26.80
2017-06-11T15:55:56.087Z,26.70
2017-06-11T15:58:22.829Z,27.00
2017-06-11T16:00:49.261Z,27.00
2017-06-11T16:03:15.740Z,26.80
2017-06-11T16:05:42.194Z,26.70
2017-06-11T16:08:08.666Z,26.50
2017-06-11T16:10:35.154Z,26.40
2017-06-11T16:13:08.456Z,26.50
2017-06-11T16:15:35.059Z,26.30
2017-06-11T16:18:01.601Z,26.40
2017-06-11T16:20:28.880Z,26.50
2017-06-11T16:22:55.472Z,26.50
2017-06-11T16:25:21.997Z,26.50
2017-06-11T16:27:48.454Z,26.50
2017-06-11T16:30:15.071Z,26.50
2017-06-11T16:32:41.518Z,26.40
2017-06-11T16:35:07.993Z,26.50
2017-06-11T16:37:34.514Z,26.50
2017-06-11T16:40:00.955Z,26.30
2017-06-11T16:42:28.096Z,26.30
2017-06-11T16:44:54.577Z,26.20
2017-06-11T16:47:21.029Z,26.00
2017-06-11T16:49:47.550Z,25.90
2017-06-11T16:52:14.352Z,26.00
2017-06-11T16:54:40.830Z,26.10
2017-06-11T16:57:07.367Z,26.00
2017-06-11T16:59:40.906Z,26.10
2017-06-11T17:02:07.393Z,26.00
2017-06-11T17:04:33.955Z,25.90
2017-06-11T17:07:00.445Z,25.90
2017-06-11T17:09:26.959Z,25.80
2017-06-11T17:11:53.762Z,25.90
2017-06-11T17:14:20.362Z,25.80
2017-06-11T17:16:46.848Z,25.60
2017-06-11T17:19:14.194Z,25.60
2017-06-11T17:21:41.459Z,25.50
2017-06-11T17:24:07.942Z,25.50
2017-06-11T17:26:34.486Z,25.50
2017-06-11T17:29:01.064Z,25.50
2017-06-11T17:31:27.582Z,25.50
2017-06-11T17:33:54.061Z,25.40
2017-06-11T17:36:20.597Z,25.40
2017-06-11T17:38:47.122Z,25.40
2017-06-11T17:41:13.671Z,25.30
2017-06-11T17:43:40.157Z,25.40
2017-06-11T17:46:07.409Z,25.40
2017-06-11T17:48:33.915Z,25.30
2017-06-11T17:51:00.474Z,25.30
2017-06-11T17:53:26.993Z,25.30
2017-06-11T17:56:00.519Z,25.20
2017-06-11T17:58:27.863Z,25.20
2017-06-11T18:00:54.339Z,25.20
2017-06-11T18:03:20.874Z,25.10
2017-06-11T18:05:48.379Z,25.20
2017-06-11T18:08:14.976Z,25.20
2017-06-11T18:10:41.481Z,25.20
2017-06-11T18:13:07.969Z,25.20
2017-06-11T18:15:34.503Z,25.10
2017-06-11T18:18:01.129Z,25.00
2017-06-11T18:20:27.768Z,25.00
2017-06-11T18:22:54.334Z,25.10
2017-06-11T18:25:20.995Z,25.00
2017-06-11T18:27:47.485Z,25.00
2017-06-11T18:30:14.155Z,24.80
2017-06-11T18:32:41.603Z,24.70
2017-06-11T18:35:08.180Z,24.70
2017-06-11T18:37:34.728Z,24.60
2017-06-11T18:40:01.329Z,24.60
2017-06-11T18:42:27.958Z,24.60
2017-06-11T18:44:54.458Z,24.60
2017-06-11T18:47:21.224Z,24.60
2017-06-11T18:49:48.430Z,24.50
2017-06-11T18:52:15.593Z,24.40
2017-06-11T18:54:42.166Z,24.40
2017-06-11T18:57:09.069Z,24.40
2017-06-11T18:59:43.108Z,24.40
2017-06-11T19:02:09.949Z,24.30
2017-06-11T19:04:37.590Z,24.10
2017-06-11T19:07:04.642Z,24.00
2017-06-11T19:09:31.674Z,23.90
2017-06-11T19:11:58.387Z,23.80
2017-06-11T19:14:25.322Z,23.80
2017-06-11T19:16:53.238Z,23.70
2017-06-11T19:19:20.379Z,23.60
2017-06-11T19:21:47.629Z,23.60
2017-06-11T19:24:15.189Z,23.50
2017-06-11T19:26:42.970Z,23.40
2017-06-11T19:29:10.925Z,23.40
2017-06-11T19:31:39.602Z,23.30
2017-06-11T19:34:06.460Z,23.40
2017-06-11T19:36:33.537Z,23.20
2017-06-11T19:39:00.654Z,23.20
2017-06-11T19:41:28.404Z,23.10
2017-06-11T19:43:55.617Z,23.00
2017-06-11T19:46:22.666Z,23.10
2017-06-11T19:48:49.515Z,23.00
2017-06-11T19:51:19.195Z,23.00
2017-06-11T19:53:46.197Z,23.00
2017-06-11T19:56:14.428Z,22.90
2017-06-11T19:58:41.628Z,22.90
2017-06-11T20:01:08.558Z,22.90
2017-06-11T20:03:35.714Z,23.00
2017-06-11T20:06:02.626Z,23.00
2017-06-11T20:08:29.393Z,22.90
2017-06-11T20:10:56.317Z,22.80
2017-06-11T20:13:23.156Z,22.80
2017-06-11T20:15:50.358Z,22.70
2017-06-11T20:18:19.676Z,22.80
2017-06-11T20:20:47.739Z,22.80
2017-06-11T20:23:16.343Z,22.80
2017-06-11T20:25:47.597Z,22.70
2017-06-11T20:28:14.899Z,22.70
2017-06-11T20:30:58.636Z,22.60
2017-06-11T20:33:25.998Z,22.60
2017-06-11T20:35:55.213Z,22.60
2017-06-11T20:38:22.534Z,22.50
2017-06-11T20:40:49.819Z,22.60
2017-06-11T20:43:16.728Z,22.50
2017-06-11T20:45:43.287Z,22.50
2017-06-11T20:48:09.939Z,22.50
2017-06-11T20:50:36.517Z,22.40
2017-06-11T20:53:03.199Z,22.30
2017-06-11T20:55:29.833Z,22.30
2017-06-11T20:57:57.089Z,22.40
2017-06-11T21:00:23.602Z,22.40
2017-06-11T21:02:50.353Z,22.40
2017-06-11T21:05:16.870Z,22.30
2017-06-11T21:07:43.384Z,22.10
2017-06-11T21:10:13.319Z,21.70
2017-06-11T21:12:40.531Z,22.00
2017-06-11T21:15:07.141Z,22.00
2017-06-11T21:17:33.807Z,22.00
2017-06-11T21:20:00.763Z,22.00
2017-06-11T21:22:27.306Z,21.90
2017-06-11T21:24:55.400Z,21.90
2017-06-11T21:27:25.760Z,22.00
2017-06-11T21:29:53.078Z,21.90
2017-06-11T21:32:20.637Z,21.90
2017-06-11T21:34:47.489Z,22.30
2017-06-11T21:37:14.279Z,21.90
2017-06-11T21:39:41.091Z,21.80
2017-06-11T21:44:40.813Z,21.60
2017-06-11T21:47:07.299Z,21.60
2017-06-11T21:49:33.832Z,21.60
2017-06-11T21:52:01.043Z,21.60
2017-06-11T21:54:27.575Z,21.60
2017-06-11T21:56:54.078Z,21.50
2017-06-11T21:59:20.736Z,21.40
2017-06-11T22:01:47.257Z,21.30
2017-06-11T22:04:13.998Z,21.20
2017-06-11T22:06:40.551Z,21.30
2017-06-11T22:09:07.061Z,21.40
2017-06-11T22:11:33.600Z,21.60
2017-06-11T22:14:00.137Z,21.40
2017-06-11T22:16:26.710Z,21.40
2017-06-11T22:18:53.666Z,21.30
2017-06-11T22:21:20.224Z,21.40
2017-06-11T22:23:46.729Z,21.20
2017-06-11T22:26:13.240Z,21.30
2017-06-11T22:28:39.692Z,21.20
2017-06-11T22:31:06.210Z,20.90
2017-06-11T22:33:33.036Z,20.60
2017-06-11T22:35:59.531Z,20.30
2017-06-11T22:38:26.016Z,20.20
2017-06-11T22:40:52.582Z,20.10
2017-06-11T22:43:19.073Z,20.30
2017-06-11T22:45:45.617Z,20.40
2017-06-11T22:48:12.073Z,20.30
2017-06-11T22:50:38.538Z,20.20
2017-06-11T22:53:05.027Z,20.30
2017-06-11T22:55:31.525Z,20.20
2017-06-11T22:57:57.973Z,20.20
2017-06-11T23:00:24.405Z,19.90
2017-06-11T23:02:50.897Z,19.80
2017-06-11T23:05:17.408Z,20.00
2017-06-11T23:07:44.634Z,19.50
2017-06-11T23:10:11.088Z,19.50
2017-06-11T23:12:38.314Z,19.20
2017-06-11T23:15:05.184Z,19.20
2017-06-11T23:17:31.624Z,19.00
2017-06-11T23:19:58.832Z,18.80
2017-06-11T23:22:25.422Z,18.80
2017-06-11T23:24:51.985Z,18.80
2017-06-11T23:27:18.481Z,18.60
2017-06-11T23:29:45.932Z,18.40
2017-06-11T23:32:13.180Z,18.40
2017-06-11T23:34:46.640Z,18.30
2017-06-11T23:37:13.141Z,18.50
2017-06-11T23:39:39.671Z,18.40
2017-06-11T23:42:06.156Z,18.40
2017-06-11T23:44:32.615Z,18.30
2017-06-11T23:46:59.111Z,18.30
2017-06-11T23:49:25.589Z,18.20
2017-06-11T23:51:52.849Z,18.20
2017-06-11T23:54:20.057Z,18.10
2017-06-11T23:56:46.556Z,18.10
2017-06-11T23:59:13.020Z,18.10
